createdAt,value
2018-08-03T00:00:39.625Z,25.25
2018-08-03T00:03:09.796Z,25.21
2018-08-03T00:05:38.475Z,25.16
2018-08-03T00:08:08.064Z,25.14
2018-08-03T00:10:37.287Z,25.09
2018-08-03T00:13:06.709Z,25.08
2018-08-03T00:15:35.540Z,25.05
2018-08-03T00:18:05.671Z,25.06
2018-08-03T00:20:34.207Z,25.05
2018-08-03T00:23:03.488Z,25.04
2018-08-03T00:25:34.604Z,25.00
2018-08-03T00:28:04.011Z,24.98
2018-08-03T00:30:33.155Z,25.01
2018-08-03T00:33:03.864Z,24.96
2018-08-03T00:35:32.340Z,24.95
2018-08-03T00:38:01.479Z,24.88
2018-08-03T00:40:30.719Z,24.83
2018-08-03T00:43:01.047Z,24.79
2018-08-03T00:45:29.952Z,24.75
2018-08-03T00:47:58.728Z,24.74
2018-08-03T00:50:28.112Z,24.73
2018-08-03T00:52:58.002Z,24.75
2018-08-03T00:55:27.035Z,24.78
2018-08-03T00:57:56.373Z,24.73
2018-08-03T01:00:24.894Z,24.71
2018-08-03T01:02:53.825Z,24.70
2018-08-03T01:05:23.778Z,24.64
2018-08-03T01:07:53.042Z,24.60
2018-08-03T01:10:21.634Z,24.59
2018-08-03T01:12:51.288Z,24.57
2018-08-03T01:15:20.056Z,24.52
2018-08-03T01:17:49.521Z,24.46
2018-08-03T01:20:18.090Z,24.39
2018-08-03T01:22:46.867Z,24.38
2018-08-03T01:25:16.588Z,24.34
2018-08-03T01:27:45.105Z,24.34
2018-08-03T01:30:13.701Z,24.32
2018-08-03T01:32:42.827Z,24.29
2018-08-03T01:35:11.436Z,24.26
2018-08-03T01:37:40.024Z,24.24
2018-08-03T01:40:09.478Z,24.25
2018-08-03T01:42:38.006Z,24.24
2018-08-03T01:45:07.979Z,24.22
2018-08-03T01:47:36.667Z,24.17
2018-08-03T01:50:05.385Z,24.18
2018-08-03T01:52:34.200Z,24.13
2018-08-03T01:55:03.435Z,24.12
2018-08-03T01:57:31.941Z,24.09
2018-08-03T02:00:01.290Z,24.10
2018-08-03T02:02:31.081Z,24.15
2018-08-03T02:04:59.567Z,24.15
2018-08-03T02:07:29.146Z,24.10
2018-08-03T02:09:58.320Z,24.10
2018-08-03T02:12:27.458Z,24.09
2018-08-03T02:14:56.131Z,24.10
2018-08-03T02:17:24.737Z,24.12
2018-08-03T02:19:54.587Z,24.16
2018-08-03T02:22:23.768Z,24.14
2018-08-03T02:24:52.596Z,24.00
2018-08-03T02:27:22.236Z,23.93
2018-08-03T02:29:51.056Z,23.90
2018-08-03T02:32:22.102Z,23.85
2018-08-03T02:34:50.706Z,23.81
2018-08-03T02:37:19.768Z,23.81
2018-08-03T02:39:50.706Z,23.72
2018-08-03T02:42:21.060Z,23.72
2018-08-03T02:44:51.265Z,23.68
2018-08-03T02:47:20.118Z,23.64
2018-08-03T02:49:49.603Z,23.62
2018-08-03T02:52:18.136Z,23.60
2018-08-03T02:54:46.691Z,23.58
2018-08-03T02:57:16.227Z,23.59
2018-08-03T02:59:44.731Z,23.51
2018-08-03T03:02:14.256Z,23.50
2018-08-03T03:04:43.215Z,23.47
2018-08-03T03:07:12.450Z,23.46
2018-08-03T03:09:42.687Z,23.42
2018-08-03T03:12:11.413Z,23.39
2018-08-03T03:14:40.837Z,23.36
2018-08-03T03:17:11.669Z,23.39
2018-08-03T03:19:41.282Z,23.38
2018-08-03T03:22:09.929Z,23.36
2018-08-03T03:24:38.442Z,23.33
2018-08-03T03:27:07.732Z,23.30
2018-08-03T03:29:36.519Z,23.28
2018-08-03T03:32:06.219Z,23.26
2018-08-03T03:34:34.766Z,23.25
2018-08-03T03:37:03.884Z,23.23
2018-08-03T03:39:33.717Z,23.22
2018-08-03T03:42:04.499Z,23.24
2018-08-03T03:44:34.467Z,23.25
2018-08-03T03:47:03.526Z,23.29
2018-08-03T03:49:33.092Z,23.25
2018-08-03T03:52:02.257Z,23.21
2018-08-03T03:54:30.903Z,23.15
2018-08-03T03:57:00.383Z,23.12
2018-08-03T03:59:29.853Z,23.14
2018-08-03T04:01:59.301Z,23.11
2018-08-03T04:04:27.815Z,23.11
2018-08-03T04:06:57.135Z,23.08
2018-08-03T04:09:27.113Z,23.06
2018-08-03T04:11:56.793Z,23.00
2018-08-03T04:14:25.368Z,23.01
2018-08-03T04:16:54.138Z,23.01
2018-08-03T04:19:23.513Z,23.02
2018-08-03T04:21:52.679Z,23.09
2018-08-03T04:24:21.980Z,23.10
2018-08-03T04:26:50.572Z,23.15
2018-08-03T04:29:20.157Z,23.18
2018-08-03T04:31:48.923Z,23.21
2018-08-03T04:34:17.406Z,23.20
2018-08-03T04:36:48.373Z,23.19
2018-08-03T04:39:17.766Z,23.17
2018-08-03T04:41:48.416Z,23.22
2018-08-03T04:44:17.130Z,23.26
2018-08-03T04:46:45.741Z,23.30
2018-08-03T04:49:15.222Z,23.30
2018-08-03T04:51:44.777Z,23.31
2018-08-03T04:54:13.543Z,23.27
2018-08-03T04:56:43.039Z,23.28
2018-08-03T04:59:11.920Z,23.28
2018-08-03T05:01:40.583Z,23.26
2018-08-03T05:04:09.815Z,23.28
2018-08-03T05:06:38.405Z,23.28
2018-08-03T05:09:07.853Z,23.29
2018-08-03T05:11:36.357Z,23.33
2018-08-03T05:14:04.913Z,23.34
2018-08-03T05:16:33.477Z,23.36
2018-08-03T05:19:02.048Z,23.42
2018-08-03T05:21:31.700Z,23.48
2018-08-03T05:24:01.462Z,23.50
2018-08-03T05:26:31.514Z,23.48
2018-08-03T05:29:02.752Z,23.49
2018-08-03T05:31:32.006Z,23.50
2018-08-03T05:34:02.320Z,23.53
2018-08-03T05:36:30.986Z,23.53
2018-08-03T05:39:00.227Z,23.59
2018-08-03T05:41:28.787Z,23.63
2018-08-03T05:43:57.316Z,23.62
2018-08-03T05:46:25.868Z,23.73
2018-08-03T05:48:55.555Z,23.75
2018-08-03T05:51:25.439Z,23.84
2018-08-03T05:53:55.006Z,23.87
2018-08-03T05:56:25.853Z,23.79
2018-08-03T05:58:56.509Z,23.83
2018-08-03T06:01:25.281Z,23.92
2018-08-03T06:03:53.732Z,23.87
2018-08-03T06:06:22.309Z,23.97
2018-08-03T06:08:51.769Z,24.13
2018-08-03T06:11:20.436Z,24.23
2018-08-03T06:13:49.058Z,24.36
2018-08-03T06:16:18.214Z,24.43
2018-08-03T06:18:46.854Z,24.54
2018-08-03T06:21:15.471Z,24.58
2018-08-03T06:23:47.642Z,24.59
2018-08-03T06:26:18.577Z,24.64
2018-08-03T06:28:47.877Z,24.66
2018-08-03T06:31:16.808Z,24.69
2018-08-03T06:33:45.251Z,24.78
2018-08-03T06:36:14.044Z,24.82
2018-08-03T06:38:42.780Z,24.84
2018-08-03T06:41:11.636Z,24.92
2018-08-03T06:43:40.286Z,24.96
2018-08-03T06:46:09.127Z,25.03
2018-08-03T06:48:41.022Z,25.08
2018-08-03T06:51:10.726Z,25.16
2018-08-03T06:53:40.440Z,25.26
2018-08-03T06:56:09.806Z,25.27
2018-08-03T06:58:40.429Z,25.33
2018-08-03T07:01:11.410Z,25.35
2018-08-03T07:03:40.637Z,25.40
2018-08-03T07:06:13.376Z,25.42
2018-08-03T07:08:44.797Z,25.42
2018-08-03T07:12:43.277Z,25.45
2018-08-03T07:15:13.431Z,25.54
2018-08-03T07:17:44.179Z,25.60
2018-08-03T07:20:15.946Z,25.67
2018-08-03T07:22:47.218Z,25.74
2018-08-03T07:25:17.029Z,25.80
2018-08-03T07:27:47.016Z,25.85
2018-08-03T07:30:20.547Z,25.95
2018-08-03T07:32:50.228Z,26.03
2018-08-03T07:35:19.430Z,26.10
2018-08-03T07:37:48.649Z,26.13
2018-08-03T07:40:27.916Z,26.20
2018-08-03T07:43:02.305Z,26.26
2018-08-03T07:45:31.626Z,26.28
2018-08-03T07:48:03.939Z,26.36
2018-08-03T07:50:37.324Z,26.42
2018-08-03T07:53:08.158Z,26.51
2018-08-03T07:55:36.975Z,26.58
2018-08-03T07:58:06.911Z,26.64
2018-08-03T08:00:35.871Z,26.69
2018-08-03T08:03:04.857Z,26.77
2018-08-03T08:05:33.475Z,26.84
2018-08-03T08:08:03.131Z,26.91
2018-08-03T08:10:31.732Z,26.98
2018-08-03T08:13:01.177Z,27.04
2018-08-03T08:15:29.869Z,27.06
2018-08-03T08:17:58.737Z,27.07
2018-08-03T08:20:27.428Z,27.11
2018-08-03T08:22:57.298Z,27.16
2018-08-03T08:25:25.819Z,27.21
2018-08-03T08:27:54.605Z,27.24
2018-08-03T08:30:26.297Z,27.30
2018-08-03T08:32:54.863Z,27.35
2018-08-03T08:35:24.695Z,27.40
2018-08-03T08:37:53.382Z,27.44
2018-08-03T08:40:22.798Z,27.47
2018-08-03T08:42:51.461Z,27.52
2018-08-03T08:45:20.067Z,27.56
2018-08-03T08:47:51.114Z,27.68
2018-08-03T08:50:20.719Z,27.78
2018-08-03T08:52:50.566Z,27.88
2018-08-03T08:55:19.382Z,27.98
2018-08-03T08:57:47.888Z,28.04
2018-08-03T09:00:16.589Z,28.10
2018-08-03T09:02:45.747Z,28.17
2018-08-03T09:05:15.789Z,28.24
2018-08-03T09:07:45.115Z,28.28
2018-08-03T09:10:13.963Z,28.32
2018-08-03T09:12:43.029Z,28.33
2018-08-03T09:15:11.924Z,28.38
2018-08-03T09:17:42.144Z,28.42
2018-08-03T09:20:11.260Z,28.47
2018-08-03T09:22:40.046Z,28.52
2018-08-03T09:25:09.232Z,28.58
2018-08-03T09:27:39.189Z,28.61
2018-08-03T09:30:10.178Z,28.69
2018-08-03T09:32:39.328Z,28.78
2018-08-03T09:35:08.616Z,28.84
2018-08-03T09:40:37.635Z,28.98
2018-08-03T09:43:06.561Z,29.01
2018-08-03T09:45:35.866Z,29.12
2018-08-03T09:48:04.613Z,29.21
2018-08-03T09:50:33.430Z,29.23
2018-08-03T09:53:02.043Z,29.31
2018-08-03T09:55:31.449Z,29.40
2018-08-03T09:57:59.918Z,29.46
2018-08-03T10:00:34.839Z,29.51
2018-08-03T10:03:03.378Z,29.56
2018-08-03T10:05:34.408Z,29.55
2018-08-03T10:08:03.220Z,29.63
2018-08-03T10:10:34.304Z,29.69
2018-08-03T10:13:03.056Z,29.77
2018-08-03T10:15:32.057Z,29.82
2018-08-03T10:18:00.808Z,29.91
2018-08-03T10:20:29.591Z,29.97
2018-08-03T10:22:58.206Z,30.06
2018-08-03T10:25:29.389Z,30.15
2018-08-03T10:30:50.145Z,30.25
2018-08-03T10:33:19.768Z,30.24
2018-08-03T10:35:49.100Z,30.21
2018-08-03T10:38:22.125Z,30.27
2018-08-03T10:40:53.144Z,30.29
2018-08-03T10:43:21.863Z,30.34
2018-08-03T10:45:52.132Z,30.39
2018-08-03T10:48:21.829Z,30.47
2018-08-03T10:50:50.401Z,30.55
2018-08-03T10:53:19.161Z,30.58
2018-08-03T10:55:49.972Z,30.57
2018-08-03T10:58:19.750Z,30.57
2018-08-03T11:00:50.966Z,30.59
2018-08-03T11:03:20.688Z,30.66
2018-08-03T11:05:49.406Z,30.68
2018-08-03T11:08:17.950Z,30.73
2018-08-03T11:10:46.848Z,30.85
2018-08-03T11:13:15.910Z,30.93
2018-08-03T11:15:45.116Z,31.01
2018-08-03T11:18:13.799Z,31.06
2018-08-03T11:20:42.500Z,31.07
2018-08-03T11:23:11.121Z,31.18
2018-08-03T11:25:39.753Z,31.29
2018-08-03T11:28:08.542Z,31.31
2018-08-03T11:30:38.274Z,31.40
2018-08-03T11:33:06.863Z,31.40
2018-08-03T11:35:35.891Z,31.47
2018-08-03T11:38:05.104Z,31.43
2018-08-03T11:40:33.810Z,31.52
2018-08-03T11:43:03.264Z,31.52
2018-08-03T11:45:32.842Z,31.56
2018-08-03T11:48:02.417Z,31.63
2018-08-03T11:50:31.311Z,31.68
2018-08-03T11:52:59.816Z,31.75
2018-08-03T11:55:28.626Z,31.73
2018-08-03T11:57:57.416Z,31.89
2018-08-03T12:00:25.936Z,31.96
2018-08-03T12:02:55.540Z,32.05
2018-08-03T12:05:24.448Z,32.10
2018-08-03T12:07:53.733Z,32.19
2018-08-03T12:10:23.501Z,32.26
2018-08-03T12:12:52.144Z,32.34
2018-08-03T12:15:21.425Z,32.38
2018-08-03T12:17:50.149Z,32.36
2018-08-03T12:20:19.991Z,32.43
2018-08-03T12:22:49.476Z,32.56
2018-08-03T12:25:18.779Z,32.66
2018-08-03T12:27:47.425Z,32.78
2018-08-03T12:30:16.164Z,32.88
2018-08-03T12:32:44.670Z,32.89
2018-08-03T12:35:13.263Z,32.96
2018-08-03T12:37:41.844Z,33.08
2018-08-03T12:40:10.752Z,33.11
2018-08-03T12:42:40.342Z,33.06
2018-08-03T12:45:10.548Z,33.11
2018-08-03T12:47:40.209Z,33.11
2018-08-03T12:50:09.762Z,33.13
2018-08-03T12:52:38.447Z,33.29
2018-08-03T12:55:08.075Z,33.31
2018-08-03T12:57:37.288Z,33.43
2018-08-03T13:00:11.170Z,33.47
2018-08-03T13:02:42.644Z,33.49
2018-08-03T13:05:11.265Z,33.45
2018-08-03T13:07:41.859Z,33.47
2018-08-03T13:10:14.060Z,33.60
2018-08-03T13:12:46.308Z,33.76
2018-08-03T13:15:16.378Z,33.91
2018-08-03T13:17:45.010Z,34.00
2018-08-03T13:20:13.517Z,34.12
2018-08-03T13:22:42.625Z,34.14
2018-08-03T13:25:13.480Z,34.24
2018-08-03T13:27:41.971Z,34.26
2018-08-03T13:30:14.756Z,34.25
2018-08-03T13:32:46.661Z,34.26
2018-08-03T13:35:15.864Z,34.23
2018-08-03T13:37:51.978Z,34.42
2018-08-03T13:40:24.258Z,34.53
2018-08-03T13:42:55.168Z,34.67
2018-08-03T13:45:25.118Z,34.65
2018-08-03T13:47:54.537Z,34.71
2018-08-03T13:50:25.871Z,34.68
2018-08-03T13:52:54.545Z,34.75
2018-08-03T13:55:24.193Z,34.75
2018-08-03T13:57:53.860Z,34.71
2018-08-03T14:00:26.928Z,34.85
2018-08-03T14:02:55.938Z,34.96
2018-08-03T14:05:25.712Z,35.12
2018-08-03T14:07:55.230Z,35.24
2018-08-03T14:10:23.734Z,35.31
2018-08-03T14:12:52.466Z,35.34
2018-08-03T14:15:21.646Z,35.18
2018-08-03T14:17:52.590Z,35.22
2018-08-03T14:20:21.747Z,35.13
2018-08-03T14:22:51.903Z,35.08
2018-08-03T14:25:23.604Z,35.23
2018-08-03T14:27:53.582Z,35.18
2018-08-03T14:30:22.900Z,35.22
2018-08-03T14:32:52.983Z,35.15
2018-08-03T14:35:24.437Z,35.21
2018-08-03T14:37:58.061Z,35.34
2018-08-03T14:40:33.705Z,35.57
2018-08-03T14:43:05.231Z,35.57
2018-08-03T14:45:35.226Z,35.55
2018-08-03T14:48:05.753Z,35.78
2018-08-03T14:50:37.214Z,35.97
2018-08-03T14:53:06.786Z,36.11
2018-08-03T14:55:39.351Z,36.18
2018-08-03T14:58:11.051Z,36.22
2018-08-03T15:00:44.838Z,36.28
2018-08-03T15:03:16.496Z,36.33
2018-08-03T15:05:46.172Z,36.32
2018-08-03T15:08:19.235Z,35.98
2018-08-03T15:10:57.046Z,36.02
2018-08-03T15:13:26.303Z,36.02
2018-08-03T15:15:58.697Z,35.89
2018-08-03T15:18:29.414Z,35.76
2018-08-03T15:21:00.191Z,35.52
2018-08-03T15:23:36.077Z,35.58
2018-08-03T15:26:06.267Z,35.85
2018-08-03T15:28:37.245Z,35.94
2018-08-03T15:31:11.428Z,35.72
2018-08-03T15:33:45.806Z,35.75
2018-08-03T15:36:14.740Z,35.92
2018-08-03T15:38:44.010Z,36.09
2018-08-03T15:41:12.473Z,35.99
2018-08-03T15:43:42.459Z,36.39
2018-08-03T15:46:11.108Z,36.68
2018-08-03T15:48:40.065Z,36.95
2018-08-03T15:51:08.925Z,37.15
2018-08-03T15:53:38.690Z,37.26
2018-08-03T15:56:07.319Z,37.39
2018-08-03T15:58:36.105Z,37.31
2018-08-03T16:01:05.046Z,37.39
2018-08-03T16:03:34.836Z,37.45
2018-08-03T16:06:04.224Z,37.50
2018-08-03T16:08:34.605Z,37.51
2018-08-03T16:11:04.371Z,37.61
2018-08-03T16:13:33.892Z,37.24
2018-08-03T16:16:03.296Z,36.94
2018-08-03T16:18:32.014Z,36.92
2018-08-03T16:21:01.630Z,36.96
2018-08-03T16:25:00.172Z,37.12
2018-08-03T16:27:28.676Z,36.95
2018-08-03T16:29:57.972Z,36.64
2018-08-03T16:32:27.072Z,36.37
2018-08-03T16:34:55.755Z,36.00
2018-08-03T16:37:25.205Z,36.21
2018-08-03T16:39:55.301Z,36.25
2018-08-03T16:42:28.141Z,36.28
2018-08-03T16:44:58.582Z,36.24
2018-08-03T16:47:27.392Z,35.95
2018-08-03T16:49:57.462Z,35.91
2018-08-03T16:52:26.137Z,35.74
2018-08-03T16:54:54.880Z,35.47
2018-08-03T16:57:25.943Z,35.32
2018-08-03T16:59:55.292Z,35.06
2018-08-03T17:02:24.903Z,34.94
2018-08-03T17:04:54.943Z,34.81
2018-08-03T17:07:23.537Z,34.57
2018-08-03T17:09:52.464Z,34.47
2018-08-03T17:12:25.201Z,34.45
2018-08-03T17:14:54.816Z,34.37
2018-08-03T17:17:25.010Z,34.28
2018-08-03T17:19:54.373Z,34.15
2018-08-03T17:22:23.550Z,34.07
2018-08-03T17:24:53.017Z,33.92
2018-08-03T17:27:21.865Z,33.81
2018-08-03T17:29:50.434Z,33.64
2018-08-03T17:32:20.505Z,33.55
2018-08-03T17:34:50.097Z,33.44
2018-08-03T17:37:20.282Z,33.37
2018-08-03T17:39:48.981Z,33.22
2018-08-03T17:42:18.228Z,33.12
2018-08-03T17:44:46.781Z,33.05
2018-08-03T17:47:15.611Z,32.97
2018-08-03T17:49:44.375Z,32.88
2018-08-03T17:52:13.847Z,32.81
2018-08-03T17:54:42.849Z,32.75
2018-08-03T17:57:12.115Z,32.71
2018-08-03T17:59:40.799Z,32.70
2018-08-03T18:02:09.271Z,32.68
2018-08-03T18:04:38.575Z,32.64
2018-08-03T18:07:07.264Z,32.56
2018-08-03T18:09:35.784Z,32.48
2018-08-03T18:12:04.428Z,32.41
2018-08-03T18:14:33.615Z,32.34
2018-08-03T18:17:02.741Z,32.30
2018-08-03T18:19:31.451Z,32.24
2018-08-03T18:22:00.478Z,32.17
2018-08-03T18:24:30.777Z,32.08
2018-08-03T18:27:01.675Z,32.04
2018-08-03T18:29:31.281Z,32.00
2018-08-03T18:31:59.826Z,31.89
2018-08-03T18:34:29.287Z,31.84
2018-08-03T18:36:58.158Z,31.72
2018-08-03T18:39:26.736Z,31.66
2018-08-03T18:41:56.175Z,31.60
2018-08-03T18:44:26.388Z,31.51
2018-08-03T18:46:56.108Z,31.44
2018-08-03T18:49:24.785Z,31.35
2018-08-03T18:51:54.039Z,31.25
2018-08-03T18:54:22.564Z,31.16
2018-08-03T18:56:52.712Z,31.10
2018-08-03T18:59:21.485Z,31.01
2018-08-03T19:01:50.205Z,30.96
2018-08-03T19:04:18.753Z,30.89
2018-08-03T19:06:47.924Z,30.78
2018-08-03T19:09:16.584Z,30.68
2018-08-03T19:11:47.029Z,30.59
2018-08-03T19:14:16.493Z,30.51
2018-08-03T19:16:47.607Z,30.40
2018-08-03T19:19:17.997Z,30.32
2018-08-03T19:21:48.418Z,30.23
2018-08-03T19:24:17.823Z,30.15
2018-08-03T19:26:47.081Z,30.10
2018-08-03T19:29:16.227Z,30.00
2018-08-03T19:31:44.709Z,29.91
2018-08-03T19:34:13.573Z,29.87
2018-08-03T19:36:42.134Z,29.78
2018-08-03T19:39:11.942Z,29.71
2018-08-03T19:41:41.860Z,29.65
2018-08-03T19:44:11.796Z,29.59
2018-08-03T19:46:40.842Z,29.65
2018-08-03T19:49:10.379Z,29.74
2018-08-03T19:51:39.211Z,29.73
2018-08-03T19:54:08.043Z,29.81
2018-08-03T19:56:36.999Z,29.82
2018-08-03T19:59:06.606Z,29.84
2018-08-03T20:01:36.457Z,29.85
2018-08-03T20:04:05.042Z,29.85
2018-08-03T20:06:34.684Z,29.85
2018-08-03T20:09:07.258Z,29.84
2018-08-03T20:11:35.850Z,29.81
2018-08-03T20:14:04.830Z,29.72
2018-08-03T20:16:34.368Z,29.66
2018-08-03T20:19:03.343Z,29.65
2018-08-03T20:21:32.060Z,29.59
2018-08-03T20:24:00.792Z,29.57
2018-08-03T20:26:29.451Z,29.56
2018-08-03T20:28:59.503Z,29.49
2018-08-03T20:31:28.169Z,29.44
2018-08-03T20:33:59.642Z,29.39
2018-08-03T20:36:29.864Z,29.39
2018-08-03T20:38:58.407Z,29.36
2018-08-03T20:41:27.291Z,29.37
2018-08-03T20:43:57.497Z,29.39
2018-08-03T20:46:26.968Z,29.35
2018-08-03T20:48:56.951Z,29.29
2018-08-03T20:51:26.442Z,29.22
2018-08-03T20:53:56.449Z,29.15
2018-08-03T20:56:26.751Z,29.08
2018-08-03T20:58:55.936Z,29.05
2018-08-03T21:01:27.748Z,29.00
2018-08-03T21:03:57.248Z,28.97
2018-08-03T21:06:27.903Z,29.01
2018-08-03T21:08:56.668Z,29.00
2018-08-03T21:11:32.040Z,28.98
2018-08-03T21:14:01.746Z,28.86
2018-08-03T21:16:31.341Z,28.80
2018-08-03T21:18:59.875Z,28.77
2018-08-03T21:21:33.332Z,28.67
2018-08-03T21:24:03.218Z,28.67
2018-08-03T21:26:31.731Z,28.70
2018-08-03T21:29:00.295Z,28.73
2018-08-03T21:31:29.635Z,28.64
2018-08-03T21:33:59.888Z,28.56
2018-08-03T21:36:28.566Z,28.55
2018-08-03T21:38:57.319Z,28.44
2018-08-03T21:41:25.840Z,28.43
2018-08-03T21:43:54.474Z,28.40
2018-08-03T21:46:23.499Z,28.38
2018-08-03T21:48:53.039Z,28.38
2018-08-03T21:51:22.373Z,28.33
2018-08-03T21:53:50.825Z,28.24
2018-08-03T21:56:19.456Z,28.19
2018-08-03T21:58:48.557Z,28.20
2018-08-03T22:01:18.350Z,28.20
2018-08-03T22:03:47.655Z,28.05
2018-08-03T22:06:16.840Z,28.01
2018-08-03T22:08:45.520Z,28.02
2018-08-03T22:11:15.018Z,28.06
2018-08-03T22:13:43.777Z,28.04
2018-08-03T22:16:12.335Z,27.97
2018-08-03T22:18:42.722Z,27.87
2018-08-03T22:21:12.369Z,27.84
2018-08-03T22:23:42.305Z,27.84
2018-08-03T22:26:11.627Z,27.79
2018-08-03T22:28:41.452Z,27.80
2018-08-03T22:31:10.496Z,27.68
2018-08-03T22:33:41.771Z,27.70
2018-08-03T22:36:11.196Z,27.71
2018-08-03T22:38:40.381Z,27.69
2018-08-03T22:41:10.378Z,27.70
2018-08-03T22:43:39.746Z,27.73
2018-08-03T22:46:09.398Z,27.70
2018-08-03T22:48:40.837Z,27.69
2018-08-03T22:51:12.527Z,27.61
2018-08-03T22:53:41.326Z,27.60
2018-08-03T22:56:12.116Z,27.61
2018-08-03T22:58:41.598Z,27.60
2018-08-03T23:01:12.485Z,27.59
2018-08-03T23:03:42.030Z,27.61
2018-08-03T23:06:10.527Z,27.55
2018-08-03T23:08:38.988Z,27.53
2018-08-03T23:11:09.974Z,27.52
2018-08-03T23:13:38.515Z,27.55
2018-08-03T23:16:08.192Z,27.50
2018-08-03T23:18:38.590Z,27.46
2018-08-03T23:21:07.745Z,27.43
2018-08-03T23:23:36.513Z,27.45
2018-08-03T23:26:06.144Z,27.41
2018-08-03T23:28:35.221Z,27.29
2018-08-03T23:31:08.102Z,27.16
2018-08-03T23:33:37.869Z,27.15
2018-08-03T23:36:07.826Z,27.11
2018-08-03T23:38:37.394Z,27.02
2018-08-03T23:41:06.249Z,26.97
2018-08-03T23:43:35.655Z,26.85
2018-08-03T23:46:04.915Z,26.78
2018-08-03T23:48:34.491Z,26.70
2018-08-03T23:51:04.817Z,26.67
2018-08-03T23:53:35.409Z,26.72
2018-08-03T23:56:05.056Z,26.64
2018-08-03T23:58:34.127Z,26.48
